This is the latest recevied weather packets stored in our database for station/object W1NHD. If no packets are shown the sender has not sent any weather packets the latest 10 day(s).
| Time | Temp. | Humidity | Pressure | Rain* | Wind** | Luminosity | Snow |
|---|---|---|---|---|---|---|---|
| 1777297558 | 11.67° C | 75% | 1025.3 hPa | 0 mm | - | - | - |
| 1777296918 | 12.22° C | 73% | 1025.3 hPa | 0 mm | - | - | - |
| 1777295717 | 10.56° C | 73% | 1025.3 hPa | 0 mm | - | - | - |
| 1777290917 | 11.11° C | 70% | 1024.4 hPa | 0 mm | - | - | - |
| 1777283116 | 6.11° C | 84% | 1023.2 hPa | 0 mm | - | - | - |
| 1777281917 | 6.11° C | 84% | 1022.9 hPa | 0 mm | - | - | - |
| 1777278337 | 3.89° C | 89% | 1022.5 hPa | 0 mm | - | - | - |
| 1777276537 | 5° C | 89% | 1022.5 hPa | 0 mm | - | - | - |
| 1777269918 | 5.56° C | 81% | 1021.9 hPa | 0 mm | - | - | - |
| 1777266918 | 5.56° C | 80% | 1022 hPa | 0 mm | - | - | - |
| 1777257316 | 7.78° C | 68% | 1021.9 hPa | 0 mm | - | - | - |
| 1777256717 | 7.78° C | 68% | 1021.8 hPa | 0 mm | - | - | - |
| 1777253116 | 9.44° C | 60% | 1021.7 hPa | 0 mm | - | - | - |
| 1777248936 | 10.56° C | 56% | 1021 hPa | 0 mm | - | - | - |
| 1777243516 | 11.67° C | 53% | 1020.5 hPa | 0 mm | - | - | - |
| 1777242916 | 11.67° C | 52% | 1020.6 hPa | 0 mm | - | - | - |
| 1777242316 | 11.67° C | 53% | 1020.6 hPa | 0 mm | - | - | - |
| 1777241716 | 12.22° C | 52% | 1020.4 hPa | 0 mm | - | - | - |
| 1777238119 | 12.22° C | 51% | 1020.4 hPa | 0 mm | - | - | - |
| 1777236918 | 11.67° C | 50% | 1020.3 hPa | 0 mm | - | - | - |
| 1777235718 | 11.67° C | 52% | 1020.3 hPa | 0 mm | - | - | - |
| 1777233317 | 11.11° C | 51% | 1020.2 hPa | 0 mm | - | - | - |
| 1777232118 | 11.11° C | 55% | 1020.4 hPa | 0 mm | - | - | - |
| 1777224919 | 11.67° C | 59% | 1020.7 hPa | 0 mm | - | - | - |
| 1777219518 | 11.67° C | 68% | 1020.9 hPa | 0 mm | - | - | - |
* Rain latest hour (hover to see other rain measurements)
** Current wind speed in m/s (hover to see current wind gust speed)